Time;durP1;ratioP1;P1;durP2;ratioP2;P2;SDS_P1;SDS_P2;PMS_P1;PMS_P2;Temp;Humidity;BMP_temperature;BMP_pressure;BME280_temperature;BME280_humidity;BME280_pressure;Samples;Min_cycle;Max_cycle;Signal;HPM_P1;HPM_P2
2022/12/19 00:00:18;;;;;;;;;;;;;;;2.21;100.00;99582.16;5023928;28;20149;-45
2022/12/19 00:02:44;;;;;;;;;;;;;;;2.07;100.00;99581.13;5023238;28;19917;-46
2022/12/19 00:05:09;;;;;;;;;;;;;;;2.11;100.00;99593.03;5021261;28;19970;-45
2022/12/19 00:07:34;;;;;;;;;;;;;;;2.24;100.00;99599.13;5021940;28;19956;-47
2022/12/19 00:09:59;;;;;;;;;;;;;;;1.97;100.00;99603.03;5021253;28;20517;-46
2022/12/19 00:12:25;;;;;;;;;;;;;;;2.21;100.00;99605.03;5021823;28;20423;-47
2022/12/19 00:14:50;;;;;;;;;;;;;;;2.06;100.00;99615.00;5022105;28;19951;-47
2022/12/19 00:17:15;;;;;;;;;;;;;;;2.11;100.00;99617.59;5021251;28;19917;-47
2022/12/19 00:19:41;;;;;;;;;;;;;;;1.95;100.00;99621.63;5020977;28;20000;-45
2022/12/19 00:22:06;;;;;;;;;;;;;;;1.99;100.00;99624.22;5022068;28;19928;-45
2022/12/19 00:24:31;;;;;;;;;;;;;;;2.30;100.00;99640.69;5021604;28;19925;-45
2022/12/19 00:26:56;;;;;;;;;;;;;;;1.73;100.00;99628.09;5021146;28;19920;-46
2022/12/19 00:29:22;;;;;;;;;;;;;;;1.98;100.00;99640.28;5020126;28;19933;-45
2022/12/19 00:31:47;;;;;;;;;;;;;;;1.91;100.00;99651.19;5020801;28;19925;-45
2022/12/19 00:34:12;;;;;;;;;;;;;;;2.30;100.00;99665.25;5021409;28;19917;-44
2022/12/19 00:36:37;;;;;;;;;;;;;;;2.16;100.00;99674.38;5020343;28;19921;-45
2022/12/19 00:39:03;;;;;;;;;;;;;;;2.23;100.00;99679.56;5019988;28;19921;-45
2022/12/19 00:41:32;;;;;;;;;;;;;;;2.37;100.00;99677.19;5019710;28;20020;-44
2022/12/19 00:43:59;;;;;;;;;;;;;;;2.48;100.00;99684.94;5021495;28;19927;-44
2022/12/19 00:46:24;;;;;;;;;;;;;;;2.46;100.00;99684.06;5021259;28;19921;-45
2022/12/19 00:48:50;;;;;;;;;;;;;;;2.50;100.00;99693.44;5001489;28;19921;-44
2022/12/19 00:51:17;;;;;;;;;;;;;;;2.17;100.00;99688.81;5020254;28;19975;-44
2022/12/19 00:53:43;;;;;;;;;;;;;;;2.01;100.00;99686.06;5020292;28;19927;-45
2022/12/19 00:56:18;;;;;;;;;;;;;;;2.37;100.00;99697.50;5021079;28;19921;-45
2022/12/19 00:58:44;;;;;;;;;;;;;;;2.54;100.00;99696.88;5018582;28;19921;-44
2022/12/19 01:01:14;;;;;;;;;;;;;;;2.33;100.00;99689.84;5020858;28;21675;-45
2022/12/19 01:03:39;;;;;;;;;;;;;;;2.05;100.00;99690.34;5021699;28;19967;-45
2022/12/19 01:06:04;;;;;;;;;;;;;;;2.35;100.00;99695.78;5021245;28;19925;-45
2022/12/19 01:08:30;;;;;;;;;;;;;;;2.35;100.00;99706.84;5002160;28;19921;-45
2022/12/19 01:10:55;;;;;;;;;;;;;;;2.46;100.00;99707.81;5021935;28;19921;-45
2022/12/19 01:13:21;;;;;;;;;;;;;;;2.12;100.00;99710.75;5021920;28;19923;-46
2022/12/19 01:15:46;;;;;;;;;;;;;;;2.22;100.00;99713.44;5022038;28;20000;-46
2022/12/19 01:18:11;;;;;;;;;;;;;;;2.17;100.00;99716.78;5019947;28;20520;-45
2022/12/19 01:20:40;;;;;;;;;;;;;;;2.16;100.00;99707.41;5021854;28;19917;-46
2022/12/19 01:23:06;;;;;;;;;;;;;;;2.06;100.00;99709.00;5020655;28;19928;-45
2022/12/19 01:25:32;;;;;;;;;;;;;;;2.09;100.00;99711.56;5022646;28;19925;-45
2022/12/19 01:27:57;;;;;;;;;;;;;;;2.51;100.00;99723.97;5021132;28;19932;-45
2022/12/19 01:30:22;;;;;;;;;;;;;;;2.03;100.00;99716.53;5019891;28;19921;-45
2022/12/19 01:32:47;;;;;;;;;;;;;;;2.37;100.00;99722.94;5021591;28;19943;-45
2022/12/19 01:35:13;;;;;;;;;;;;;;;2.01;100.00;99729.25;5021132;28;19920;-45
2022/12/19 01:37:38;;;;;;;;;;;;;;;2.29;100.00;99740.63;5020737;28;19921;-45
2022/12/19 01:40:03;;;;;;;;;;;;;;;2.44;100.00;99745.09;5021027;28;19986;-45
2022/12/19 01:42:33;;;;;;;;;;;;;;;2.38;100.00;99751.78;5021046;28;19921;-45
2022/12/19 01:45:02;;;;;;;;;;;;;;;2.34;100.00;99753.41;5020409;28;19932;-45
2022/12/19 01:47:28;;;;;;;;;;;;;;;2.00;100.00;99755.47;5020400;28;20410;-45
2022/12/19 01:49:53;;;;;;;;;;;;;;;2.28;100.00;99773.66;5021093;28;19921;-45
2022/12/19 01:52:18;;;;;;;;;;;;;;;2.48;100.00;99772.22;5018972;28;20412;-45
2022/12/19 01:54:43;;;;;;;;;;;;;;;2.38;100.00;99770.41;5021231;28;19932;-45
2022/12/19 01:57:10;;;;;;;;;;;;;;;2.15;100.00;99771.78;5019261;28;19921;-47
2022/12/19 01:59:36;;;;;;;;;;;;;;;2.28;100.00;99773.66;5020454;28;19921;-46
2022/12/19 02:02:22;;;;;;;;;;;;;;;2.25;100.00;99771.91;5020092;28;20398;-45
2022/12/19 02:04:47;;;;;;;;;;;;;;;2.42;100.00;99771.31;5021512;28;20432;-46
2022/12/19 02:07:13;;;;;;;;;;;;;;;2.43;98.75;99776.41;5021855;28;19924;-46
2022/12/19 02:09:38;;;;;;;;;;;;;;;2.24;97.56;99769.38;5002892;28;19952;-46
2022/12/19 02:12:03;;;;;;;;;;;;;;;2.16;96.42;99768.41;5019948;28;19952;-46
2022/12/19 02:14:29;;;;;;;;;;;;;;;2.31;94.29;99773.72;5003403;28;20035;-46
2022/12/19 02:17:05;;;;;;;;;;;;;;;2.55;92.27;99787.56;5021438;28;19927;-48
2022/12/19 02:19:36;;;;;;;;;;;;;;;2.27;95.92;99777.88;5019111;28;20263;-46
2022/12/19 02:22:03;;;;;;;;;;;;;;;2.55;93.72;99795.19;5020971;28;19921;-45
2022/12/19 02:24:41;;;;;;;;;;;;;;;2.48;93.78;99800.19;5019273;28;19921;-46
2022/12/19 02:27:06;;;;;;;;;;;;;;;2.29;96.26;99780.44;5021253;28;19917;-46
2022/12/19 02:29:34;;;;;;;;;;;;;;;2.19;95.16;99778.59;5020664;28;19924;-45
2022/12/19 02:32:17;;;;;;;;;;;;;;;2.30;93.76;99777.06;5020474;28;19924;-46
2022/12/19 02:34:44;;;;;;;;;;;;;;;2.38;92.63;99775.50;5020743;28;20047;-46
2022/12/19 02:37:10;;;;;;;;;;;;;;;2.18;95.38;99771.81;5002481;28;19917;-46
2022/12/19 02:39:35;;;;;;;;;;;;;;;2.30;93.88;99761.81;5018241;28;19925;-46
2022/12/19 02:42:00;;;;;;;;;;;;;;;2.36;93.90;99767.00;5020780;28;20278;-46
2022/12/19 02:44:30;;;;;;;;;;;;;;;2.46;93.74;99770.50;5018968;28;19929;-47
2022/12/19 02:46:56;;;;;;;;;;;;;;;2.45;93.55;99749.31;5018794;28;19917;-48
2022/12/19 02:49:21;;;;;;;;;;;;;;;2.41;95.09;99749.25;5020628;28;19921;-46
2022/12/19 02:51:47;;;;;;;;;;;;;;;2.22;95.49;99748.16;5019102;28;19924;-46
2022/12/19 02:54:12;;;;;;;;;;;;;;;2.51;93.09;99756.19;5022859;28;19921;-47
2022/12/19 02:56:52;;;;;;;;;;;;;;;2.25;94.16;99743.13;5039769;28;19967;-45
2022/12/19 02:59:36;;;;;;;;;;;;;;;2.59;90.60;99753.72;5024133;28;19928;-46
2022/12/19 03:02:10;;;;;;;;;;;;;;;2.56;90.57;99753.69;5024409;28;19960;-46
2022/12/19 03:04:56;;;;;;;;;;;;;;;2.47;90.42;99755.28;5023058;28;19978;-46
2022/12/19 03:07:24;;;;;;;;;;;;;;;2.60;88.45;99763.03;5023685;28;19931;-47
2022/12/19 03:10:04;;;;;;;;;;;;;;;2.29;90.12;99750.81;5023910;28;19928;-46
2022/12/19 03:12:31;;;;;;;;;;;;;;;2.38;89.48;99759.41;5024771;28;20369;-47
2022/12/19 03:14:57;;;;;;;;;;;;;;;2.44;86.80;99760.34;5023162;28;19948;-46
2022/12/19 03:17:22;;;;;;;;;;;;;;;2.69;83.53;99779.28;5022780;28;19964;-46
2022/12/19 03:19:47;;;;;;;;;;;;;;;2.82;82.75;99793.00;5021418;28;20484;-46
2022/12/19 03:22:12;;;;;;;;;;;;;;;2.90;82.62;99785.47;5022893;28;20302;-46
2022/12/19 03:24:38;;;;;;;;;;;;;;;2.83;82.84;99774.38;5024184;28;19932;-46
2022/12/19 03:27:14;;;;;;;;;;;;;;;2.92;81.61;99774.47;5023781;28;20409;-47
2022/12/19 03:30:09;;;;;;;;;;;;;;;3.30;79.79;99791.81;5022287;28;19960;-45
2022/12/19 03:32:34;;;;;;;;;;;;;;;3.13;80.58;99780.63;5014735;28;19917;-46
2022/12/19 03:35:05;;;;;;;;;;;;;;;2.97;81.70;99776.22;5022513;28;19924;-45
2022/12/19 03:37:30;;;;;;;;;;;;;;;3.14;80.23;99779.78;5022339;28;20294;-46
2022/12/19 03:40:02;;;;;;;;;;;;;;;3.13;80.47;99784.03;5021691;28;19917;-47
2022/12/19 03:45:12;;;;;;;;;;;;;;;3.14;77.76;99773.00;5021574;28;19978;-48
2022/12/19 03:47:41;;;;;;;;;;;;;;;3.14;75.85;99772.16;5022633;28;19917;-46
2022/12/19 03:50:06;;;;;;;;;;;;;;;3.30;74.83;99788.44;5022084;28;19920;-46
2022/12/19 03:52:31;;;;;;;;;;;;;;;3.34;73.10;99772.34;5021549;28;20412;-47
2022/12/19 03:55:01;;;;;;;;;;;;;;;3.67;70.63;99782.00;5023702;28;19921;-46
2022/12/19 03:57:34;;;;;;;;;;;;;;;3.35;71.04;99772.38;5023094;28;19921;-46
2022/12/19 04:00:07;;;;;;;;;;;;;;;3.29;70.68;99764.69;5023109;28;19952;-45
2022/12/19 04:02:33;;;;;;;;;;;;;;;3.64;67.84;99789.59;5023406;28;19921;-46
2022/12/19 04:04:59;;;;;;;;;;;;;;;3.48;68.58;99775.88;5021752;28;19921;-47
2022/12/19 04:07:24;;;;;;;;;;;;;;;3.50;67.51;99788.63;5022391;28;20244;-48
2022/12/19 04:09:50;;;;;;;;;;;;;;;3.46;67.16;99789.44;5021960;28;19920;-48
2022/12/19 04:12:20;;;;;;;;;;;;;;;3.75;64.71;99789.69;5022557;28;20755;-48
2022/12/19 04:14:45;;;;;;;;;;;;;;;3.56;67.37;99789.53;5022331;28;19927;-47
2022/12/19 04:17:16;;;;;;;;;;;;;;;4.08;65.75;99806.97;5022549;28;19917;-48
2022/12/19 04:19:51;;;;;;;;;;;;;;;4.00;66.49;99808.59;5022987;28;19928;-50
2022/12/19 04:22:35;;;;;;;;;;;;;;;4.17;66.88;99808.69;5021555;28;19917;-47
2022/12/19 04:25:03;;;;;;;;;;;;;;;4.12;67.43;99805.25;5023232;28;19932;-49
2022/12/19 04:27:28;;;;;;;;;;;;;;;4.00;67.47;99798.41;5021045;28;20294;-48
2022/12/19 04:29:54;;;;;;;;;;;;;;;4.22;65.29;99808.72;5021417;28;19921;-47
2022/12/19 04:32:19;;;;;;;;;;;;;;;4.05;67.30;99798.44;5005015;28;19952;-47
2022/12/19 04:34:44;;;;;;;;;;;;;;;4.02;68.23;99790.78;5020460;28;19964;-48
2022/12/19 04:37:10;;;;;;;;;;;;;;;4.01;67.88;99792.44;5023229;28;20436;-48
2022/12/19 04:39:35;;;;;;;;;;;;;;;4.34;65.96;99816.47;5021707;28;20975;-47
2022/12/19 04:42:00;;;;;;;;;;;;;;;4.26;67.50;99793.47;5022587;28;19978;-49
2022/12/19 04:44:25;;;;;;;;;;;;;;;4.03;69.88;99787.38;5020875;28;19925;-48
2022/12/19 04:46:50;;;;;;;;;;;;;;;4.45;66.71;99799.53;5020740;28;19917;-47
2022/12/19 04:49:16;;;;;;;;;;;;;;;4.42;68.62;99791.00;5021380;28;19953;-47
2022/12/19 04:51:41;;;;;;;;;;;;;;;4.12;69.54;99778.06;5021053;28;19983;-49
2022/12/19 04:54:06;;;;;;;;;;;;;;;4.31;67.39;99785.84;5020332;28;20032;-47
2022/12/19 04:56:31;;;;;;;;;;;;;;;4.31;64.86;99784.16;5020470;28;19988;-47
2022/12/19 04:58:57;;;;;;;;;;;;;;;4.18;65.48;99790.88;5020930;28;19917;-47
2022/12/19 05:01:22;;;;;;;;;;;;;;;4.45;62.45;99813.97;5022034;28;19928;-47
2022/12/19 05:03:48;;;;;;;;;;;;;;;4.46;61.35;99836.94;5020958;28;19921;-48
2022/12/19 05:06:13;;;;;;;;;;;;;;;4.57;61.37;99822.56;5021284;28;19920;-48
2022/12/19 05:08:39;;;;;;;;;;;;;;;4.57;61.98;99830.22;5021109;28;20282;-48
2022/12/19 05:11:05;;;;;;;;;;;;;;;4.81;59.28;99851.59;5021980;28;19917;-50
2022/12/19 05:13:30;;;;;;;;;;;;;;;4.59;62.75;99818.31;5019030;28;19924;-48
2022/12/19 05:16:00;;;;;;;;;;;;;;;4.51;63.29;99812.31;5019758;28;20286;-48
2022/12/19 05:18:26;;;;;;;;;;;;;;;4.87;59.84;99851.63;5018989;28;19925;-49
2022/12/19 05:20:51;;;;;;;;;;;;;;;4.52;60.22;99819.13;5021000;28;19921;-48
2022/12/19 05:23:16;;;;;;;;;;;;;;;4.94;58.48;99855.91;5020795;28;20776;-50
2022/12/19 05:25:41;;;;;;;;;;;;;;;4.81;61.19;99851.59;5020900;28;19932;-49
2022/12/19 05:28:07;;;;;;;;;;;;;;;5.02;60.55;99859.34;5021319;28;19924;-46
2022/12/19 05:30:32;;;;;;;;;;;;;;;5.16;59.79;99861.97;5020701;28;19921;-48
2022/12/19 05:32:57;;;;;;;;;;;;;;;5.18;59.18;99859.44;5020521;28;19920;-48
2022/12/19 05:35:22;;;;;;;;;;;;;;;5.34;60.28;99850.13;5020552;28;19928;-48
2022/12/19 05:37:48;;;;;;;;;;;;;;;5.01;62.98;99837.22;5021429;28;20345;-47
2022/12/19 05:40:13;;;;;;;;;;;;;;;4.77;60.52;99824.38;5019158;28;20353;-50
2022/12/19 05:42:38;;;;;;;;;;;;;;;5.18;55.67;99839.00;5020033;28;19921;-48
2022/12/19 05:45:03;;;;;;;;;;;;;;;5.09;52.77;99851.72;5019976;28;20038;-47
2022/12/19 05:47:29;;;;;;;;;;;;;;;4.71;52.47;99847.28;5021386;28;19921;-48
2022/12/19 05:49:54;;;;;;;;;;;;;;;5.18;47.12;99890.06;5020491;28;19944;-48
2022/12/19 05:52:19;;;;;;;;;;;;;;;4.92;46.12;99893.31;5019206;28;19913;-48
2022/12/19 05:54:44;;;;;;;;;;;;;;;5.28;43.44;99930.09;5018214;28;19932;-48
2022/12/19 05:57:10;;;;;;;;;;;;;;;4.92;45.68;99938.44;5018176;28;20185;-47
2022/12/19 05:59:35;;;;;;;;;;;;;;;4.90;43.90;99945.22;5017861;28;19921;-47
2022/12/19 06:02:00;;;;;;;;;;;;;;;5.20;41.24;99975.16;5019493;28;19963;-47
2022/12/19 06:04:25;;;;;;;;;;;;;;;5.32;41.15;100003.34;5020972;28;19972;-48
2022/12/19 06:06:51;;;;;;;;;;;;;;;5.17;40.86;100016.00;5015103;28;19951;-48
2022/12/19 06:09:16;;;;;;;;;;;;;;;5.21;40.79;100015.19;5017149;28;19964;-48
2022/12/19 06:11:41;;;;;;;;;;;;;;;5.25;40.67;100032.25;5020445;28;19917;-49
2022/12/19 06:14:06;;;;;;;;;;;;;;;5.12;41.62;100033.00;5019769;28;19924;-48
2022/12/19 06:16:32;;;;;;;;;;;;;;;5.15;40.88;100023.66;5018892;28;20004;-47
2022/12/19 06:18:57;;;;;;;;;;;;;;;5.26;40.51;100036.50;5019111;28;19925;-47
2022/12/19 06:21:22;;;;;;;;;;;;;;;5.39;40.16;100052.78;5021431;28;19963;-49
2022/12/19 06:23:47;;;;;;;;;;;;;;;5.47;40.37;100063.03;5020475;28;20016;-48
2022/12/19 06:26:14;;;;;;;;;;;;;;;5.48;40.74;100067.31;5021327;28;19975;-48
2022/12/19 06:28:39;;;;;;;;;;;;;;;5.17;41.42;100055.16;5018535;28;19917;-48
2022/12/19 06:31:04;;;;;;;;;;;;;;;5.15;41.75;100053.44;5021228;28;19971;-49
2022/12/19 06:33:30;;;;;;;;;;;;;;;5.27;40.82;100076.53;5020777;28;19932;-49
2022/12/19 06:35:56;;;;;;;;;;;;;;;5.56;40.30;100092.03;5020939;28;19952;-48
2022/12/19 06:38:21;;;;;;;;;;;;;;;5.27;41.05;100088.44;5020769;28;19913;-50
2022/12/19 06:43:30;;;;;;;;;;;;;;;5.63;39.88;100098.03;5020154;28;20378;-48
2022/12/19 06:45:56;;;;;;;;;;;;;;;5.56;40.79;100127.78;5019627;28;19921;-48
2022/12/19 06:48:22;;;;;;;;;;;;;;;5.84;39.30;100122.88;5020273;28;19956;-51
2022/12/19 06:50:47;;;;;;;;;;;;;;;5.70;39.80;100115.09;5020520;28;20820;-48
2022/12/19 06:53:12;;;;;;;;;;;;;;;5.63;40.51;100105.69;5019537;28;19918;-48
2022/12/19 06:55:38;;;;;;;;;;;;;;;5.56;40.31;100093.72;5021147;28;19924;-49
2022/12/19 06:58:03;;;;;;;;;;;;;;;5.42;41.89;100068.09;5017725;28;19920;-48
2022/12/19 07:00:28;;;;;;;;;;;;;;;5.53;39.72;100070.72;5020771;28;19920;-48
2022/12/19 07:02:53;;;;;;;;;;;;;;;5.98;37.64;100113.59;5019881;28;20445;-48
2022/12/19 07:05:19;;;;;;;;;;;;;;;5.73;39.73;100101.50;5020192;28;19924;-49
2022/12/19 07:07:44;;;;;;;;;;;;;;;5.67;38.52;100097.19;5020733;28;19917;-48
2022/12/19 07:10:09;;;;;;;;;;;;;;;5.77;38.67;100111.75;5020350;28;20504;-49
2022/12/19 07:12:35;;;;;;;;;;;;;;;5.84;38.12;100133.94;5020420;28;20790;-47
2022/12/19 07:15:00;;;;;;;;;;;;;;;6.00;37.15;100134.06;5020462;28;19975;-48
2022/12/19 07:17:25;;;;;;;;;;;;;;;6.20;36.66;100152.91;5019046;28;19924;-49
2022/12/19 07:19:54;;;;;;;;;;;;;;;6.11;37.78;100140.06;5018507;28;20011;-46
2022/12/19 07:22:20;;;;;;;;;;;;;;;6.15;36.39;100148.59;5019343;28;20266;-46
2022/12/19 07:24:45;;;;;;;;;;;;;;;6.01;37.72;100140.88;5018534;28;19925;-48
2022/12/19 07:27:10;;;;;;;;;;;;;;;5.96;37.25;100129.78;5020165;28;20386;-46
2022/12/19 07:29:35;;;;;;;;;;;;;;;5.72;39.04;100110.84;5019938;28;20362;-47
2022/12/19 07:32:01;;;;;;;;;;;;;;;6.16;36.50;100151.19;5020583;28;19920;-46
2022/12/19 07:34:26;;;;;;;;;;;;;;;6.32;36.38;100174.25;5019955;28;19917;-47
2022/12/19 07:36:51;;;;;;;;;;;;;;;6.20;37.71;100173.38;5020532;28;19974;-47
2022/12/19 07:39:16;;;;;;;;;;;;;;;6.25;36.82;100166.56;5020309;28;19913;-48
2022/12/19 07:41:42;;;;;;;;;;;;;;;6.42;36.89;100176.84;5024138;28;20406;-47
2022/12/19 07:44:07;;;;;;;;;;;;;;;6.38;36.88;100176.84;5024215;28;19924;-47
2022/12/19 07:46:32;;;;;;;;;;;;;;;6.59;36.46;100189.72;5024744;28;19928;-46
2022/12/19 07:48:57;;;;;;;;;;;;;;;6.31;37.51;100164.88;5023571;28;19929;-48
2022/12/19 07:51:23;;;;;;;;;;;;;;;6.56;36.40;100176.91;5023749;28;20832;-46
2022/12/19 07:53:48;;;;;;;;;;;;;;;6.92;35.36;100211.16;5022271;28;20390;-46
2022/12/19 07:56:14;;;;;;;;;;;;;;;6.89;36.69;100180.41;5023590;28;20272;-46
2022/12/19 07:58:39;;;;;;;;;;;;;;;6.70;37.63;100169.25;5021862;28;19913;-49
2022/12/19 08:01:05;;;;;;;;;;;;;;;6.96;36.61;100191.53;5022221;28;19999;-47
2022/12/19 08:03:30;;;;;;;;;;;;;;;6.66;38.00;100154.75;5023759;28;19913;-47
2022/12/19 08:05:59;;;;;;;;;;;;;;;6.87;36.61;100179.56;5023683;28;19971;-47
2022/12/19 08:08:24;;;;;;;;;;;;;;;6.85;37.62;100171.03;5022943;28;19917;-48
2022/12/19 08:10:49;;;;;;;;;;;;;;;6.82;37.70;100168.44;5022664;28;19917;-47
2022/12/19 08:13:14;;;;;;;;;;;;;;;6.92;36.94;100180.41;5021674;28;20505;-47
2022/12/19 08:15:40;;;;;;;;;;;;;;;6.86;37.01;100154.78;5023276;28;19921;-48
2022/12/19 08:18:05;;;;;;;;;;;;;;;6.94;36.70;100177.88;5022812;28;19925;-48
2022/12/19 08:20:30;;;;;;;;;;;;;;;6.95;36.86;100174.44;5022830;28;19941;-47
2022/12/19 08:22:55;;;;;;;;;;;;;;;6.92;37.29;100162.50;5022662;28;19921;-46
2022/12/19 08:25:20;;;;;;;;;;;;;;;7.04;35.60;100180.41;5023700;28;19975;-47
2022/12/19 08:27:46;;;;;;;;;;;;;;;6.84;36.92;100157.38;5023880;28;19924;-49
2022/12/19 08:30:12;;;;;;;;;;;;;;;6.98;35.56;100179.56;5022375;28;20409;-46
2022/12/19 08:32:38;;;;;;;;;;;;;;;7.25;35.78;100191.53;5023109;28;19917;-47
2022/12/19 08:35:05;;;;;;;;;;;;;;;6.78;37.40;100161.63;5022690;28;19992;-48
2022/12/19 08:37:30;;;;;;;;;;;;;;;6.96;36.56;100171.91;5023282;28;19940;-47
2022/12/19 08:39:55;;;;;;;;;;;;;;;6.79;37.62;100163.31;5021869;28;20382;-50
2022/12/19 08:42:21;;;;;;;;;;;;;;;7.18;35.78;100192.41;5023253;28;20513;-49
2022/12/19 08:44:46;;;;;;;;;;;;;;;7.15;35.70;100183.00;5022951;28;19921;-48
2022/12/19 08:47:12;;;;;;;;;;;;;;;6.92;37.87;100165.06;5023539;28;19924;-49
2022/12/19 08:49:37;;;;;;;;;;;;;;;7.43;34.67;100194.09;5022287;28;19917;-49
2022/12/19 08:52:02;;;;;;;;;;;;;;;7.20;37.20;100172.75;5020744;28;20426;-50
2022/12/19 08:54:28;;;;;;;;;;;;;;;7.31;37.13;100178.75;5023354;28;19926;-48
2022/12/19 08:56:53;;;;;;;;;;;;;;;7.36;36.41;100173.63;5021796;28;19917;-48
2022/12/19 08:59:18;;;;;;;;;;;;;;;7.38;36.51;100172.75;5022561;28;20533;-48
2022/12/19 09:01:43;;;;;;;;;;;;;;;7.06;37.55;100150.53;5022773;28;20386;-47
2022/12/19 09:04:08;;;;;;;;;;;;;;;7.19;36.45;100158.25;5023528;28;20298;-48
2022/12/19 09:06:34;;;;;;;;;;;;;;;6.95;37.49;100144.56;5023370;28;19917;-48
2022/12/19 09:08:59;;;;;;;;;;;;;;;7.39;35.60;100184.75;5022351;28;20043;-48
2022/12/19 09:11:25;;;;;;;;;;;;;;;7.41;35.54;100166.78;5022625;28;20340;-49
2022/12/19 09:13:50;;;;;;;;;;;;;;;6.98;38.68;100130.91;5022672;28;19924;-48
2022/12/19 09:16:19;;;;;;;;;;;;;;;7.26;36.18;100162.53;5022922;28;19935;-49
2022/12/19 09:18:45;;;;;;;;;;;;;;;7.07;37.99;100148.84;5022588;28;19943;-49
2022/12/19 09:21:12;;;;;;;;;;;;;;;7.39;36.19;100156.53;5022437;28;19925;-50
2022/12/19 09:23:37;;;;;;;;;;;;;;;7.56;36.34;100168.50;5022481;28;19917;-48
2022/12/19 09:26:04;;;;;;;;;;;;;;;7.70;36.36;100164.19;5023063;28;19921;-47
2022/12/19 09:28:29;;;;;;;;;;;;;;;7.50;38.82;100147.16;5022079;28;19971;-48
2022/12/19 09:30:59;;;;;;;;;;;;;;;7.53;38.93;100120.66;5022473;28;19925;-47
2022/12/19 09:33:24;;;;;;;;;;;;;;;7.71;38.09;100122.31;5021180;28;19917;-48
2022/12/19 09:35:53;;;;;;;;;;;;;;;7.68;38.86;100123.16;5022532;28;19917;-50
2022/12/19 09:38:18;;;;;;;;;;;;;;;7.70;39.55;100110.34;5021887;28;20413;-47
2022/12/19 09:41:04;;;;;;;;;;;;;;;7.68;38.79;100112.91;5022055;28;19917;-50
2022/12/19 09:43:36;;;;;;;;;;;;;;;7.95;38.35;100111.97;5014573;28;20394;-47
2022/12/19 09:46:06;;;;;;;;;;;;;;;7.66;40.51;100083.88;5036217;28;20461;-49
2022/12/19 09:48:31;;;;;;;;;;;;;;;7.88;37.76;100104.31;5019833;28;20231;-47
2022/12/19 09:51:04;;;;;;;;;;;;;;;8.08;37.66;100106.81;5021259;28;19971;-47
2022/12/19 09:53:31;;;;;;;;;;;;;;;8.01;39.80;100100.00;5019464;28;19913;-48
2022/12/19 09:55:57;;;;;;;;;;;;;;;7.45;41.53;100059.13;5020721;28;19921;-48
2022/12/19 09:58:22;;;;;;;;;;;;;;;7.87;37.83;100088.09;5020400;28;19917;-48
2022/12/19 10:00:48;;;;;;;;;;;;;;;7.71;39.13;100081.31;5022258;28;19959;-48
2022/12/19 10:03:13;;;;;;;;;;;;;;;8.01;37.57;100084.63;5020750;28;19917;-48
2022/12/19 10:05:40;;;;;;;;;;;;;;;7.91;37.22;100087.22;5022951;28;19921;-49
2022/12/19 10:08:24;;;;;;;;;;;;;;;8.21;35.32;100103.34;5036695;28;20004;-49
2022/12/19 10:11:09;;;;;;;;;;;;;;;8.33;36.29;100097.28;5022150;28;19928;-48
2022/12/19 10:13:53;;;;;;;;;;;;;;;8.46;36.24;100100.66;5021317;28;20011;-49
2022/12/19 10:16:21;;;;;;;;;;;;;;;8.36;37.30;100080.16;5021046;28;19917;-50
2022/12/19 10:18:53;;;;;;;;;;;;;;;8.32;38.55;100063.06;5019711;28;19971;-48
2022/12/19 10:21:32;;;;;;;;;;;;;;;8.59;37.58;100053.50;5019964;28;20409;-48
2022/12/19 10:23:58;;;;;;;;;;;;;;;8.43;39.84;100051.91;5020192;28;20060;-48
2022/12/19 10:26:43;;;;;;;;;;;;;;;8.71;37.88;100052.56;5022245;28;19921;-48
2022/12/19 10:29:18;;;;;;;;;;;;;;;8.71;38.58;100030.31;5020046;28;20443;-48
2022/12/19 10:31:55;;;;;;;;;;;;;;;8.77;38.15;100037.97;5022170;28;19978;-49
2022/12/19 10:34:25;;;;;;;;;;;;;;;8.88;39.92;100013.91;5022333;28;19920;-49
2022/12/19 10:36:57;;;;;;;;;;;;;;;8.98;40.00;100006.09;5019116;28;19917;-50
2022/12/19 10:39:32;;;;;;;;;;;;;;;8.66;41.11;99970.44;5019150;28;19921;-48
2022/12/19 10:42:07;;;;;;;;;;;;;;;8.72;42.00;99982.38;5036277;28;19940;-49
2022/12/19 10:44:32;;;;;;;;;;;;;;;9.08;41.58;99983.75;5019995;28;19921;-49
2022/12/19 10:46:57;;;;;;;;;;;;;;;8.77;43.60;99949.78;5019660;28;19928;-49
2022/12/19 10:49:26;;;;;;;;;;;;;;;8.95;44.10;99956.47;5020667;28;20945;-49
2022/12/19 10:51:54;;;;;;;;;;;;;;;8.76;45.85;99942.97;5019625;28;20333;-49
2022/12/19 10:54:19;;;;;;;;;;;;;;;9.16;45.70;99948.53;5021461;28;20126;-49
2022/12/19 10:56:45;;;;;;;;;;;;;;;8.93;48.46;99915.38;5019192;28;20028;-50
2022/12/19 10:59:17;;;;;;;;;;;;;;;8.91;48.50;99916.25;5020755;28;20048;-48
2022/12/19 11:01:43;;;;;;;;;;;;;;;8.98;48.87;99907.63;5021929;28;19924;-48
2022/12/19 11:04:11;;;;;;;;;;;;;;;9.03;50.91;99900.72;5021637;28;20008;-51
2022/12/19 11:06:36;;;;;;;;;;;;;;;9.18;51.54;99905.69;5022476;28;19921;-48
2022/12/19 11:09:17;;;;;;;;;;;;;;;9.35;52.69;99902.03;5020257;28;19917;-48
2022/12/19 11:11:43;;;;;;;;;;;;;;;9.23;54.12;99887.63;5022284;28;19913;-49
2022/12/19 11:14:20;;;;;;;;;;;;;;;9.39;56.77;99885.72;5020574;28;19928;-48
2022/12/19 11:16:45;;;;;;;;;;;;;;;9.18;59.48;99856.00;5024755;28;20552;-49
2022/12/19 11:19:18;;;;;;;;;;;;;;;9.33;59.35;99860.13;5024069;28;19978;-49
2022/12/19 11:21:43;;;;;;;;;;;;;;;9.09;62.48;99833.84;5025375;28;20317;-48
2022/12/19 11:24:16;;;;;;;;;;;;;;;9.13;62.26;99834.66;5025469;28;19917;-48
2022/12/19 11:26:43;;;;;;;;;;;;;;;9.29;62.19;99825.88;5040805;28;19913;-49
2022/12/19 11:29:41;;;;;;;;;;;;;;;9.29;63.34;99813.03;5023604;28;20312;-48
2022/12/19 11:32:07;;;;;;;;;;;;;;;9.18;65.08;99810.59;5024264;28;19921;-48
2022/12/19 11:34:34;;;;;;;;;;;;;;;9.37;65.66;99807.75;5022998;28;20379;-48
2022/12/19 11:37:14;;;;;;;;;;;;;;;9.33;67.98;99801.00;5025596;28;20371;-49
2022/12/19 11:39:45;;;;;;;;;;;;;;;9.16;68.47;99788.34;5023849;28;20940;-48
2022/12/19 11:42:13;;;;;;;;;;;;;;;9.19;69.28;99789.19;5025117;28;20425;-47
2022/12/19 11:44:49;;;;;;;;;;;;;;;9.28;68.70;99790.75;5024915;28;19967;-49
2022/12/19 11:47:15;;;;;;;;;;;;;;;9.33;69.72;99781.28;5023739;28;19913;-48
2022/12/19 11:49:50;;;;;;;;;;;;;;;9.03;70.71;99769.66;5024294;28;19917;-48
2022/12/19 11:52:25;;;;;;;;;;;;;;;9.12;71.06;99773.84;5023017;28;19928;-49
2022/12/19 11:54:54;;;;;;;;;;;;;;;9.11;70.64;99770.44;5023868;28;19917;-51
2022/12/19 11:57:19;;;;;;;;;;;;;;;9.04;70.74;99768.81;5038966;28;19913;-48
2022/12/19 11:59:45;;;;;;;;;;;;;;;9.04;70.78;99771.38;5023295;28;19928;-48
2022/12/19 12:02:29;;;;;;;;;;;;;;;9.20;70.31;99785.72;5024804;28;19917;-47
2022/12/19 12:04:57;;;;;;;;;;;;;;;9.11;71.87;99777.28;5024122;28;19983;-49
2022/12/19 12:07:22;;;;;;;;;;;;;;;9.28;71.84;99777.06;5024422;28;20002;-48
2022/12/19 12:09:47;;;;;;;;;;;;;;;9.25;72.71;99783.09;5022343;28;19978;-48
2022/12/19 12:12:26;;;;;;;;;;;;;;;9.30;74.84;99770.16;5024214;28;19917;-48
2022/12/19 12:14:54;;;;;;;;;;;;;;;9.48;76.38;99775.03;5023277;28;19913;-48
2022/12/19 12:17:20;;;;;;;;;;;;;;;9.40;78.97;99761.47;5023867;28;20024;-49
2022/12/19 12:19:47;;;;;;;;;;;;;;;9.12;81.64;99741.31;5024511;28;20023;-48
2022/12/19 12:22:28;;;;;;;;;;;;;;;9.27;81.16;99739.38;5024131;28;19956;-48
2022/12/19 12:24:56;;;;;;;;;;;;;;;9.36;83.47;99734.94;5022591;28;20373;-49
2022/12/19 12:27:29;;;;;;;;;;;;;;;9.24;85.59;99719.72;5024192;28;19963;-48
2022/12/19 12:30:00;;;;;;;;;;;;;;;9.28;86.71;99716.22;5022297;28;19955;-51
2022/12/19 12:32:38;;;;;;;;;;;;;;;9.41;88.31;99711.72;5022744;28;19924;-48
2022/12/19 12:35:03;;;;;;;;;;;;;;;9.24;90.49;99708.56;5024007;28;19917;-48
2022/12/19 12:37:47;;;;;;;;;;;;;;;9.42;90.83;99695.47;5023857;28;19917;-48
2022/12/19 12:40:35;;;;;;;;;;;;;;;9.33;94.87;99677.63;5022418;28;19917;-48
2022/12/19 12:43:20;;;;;;;;;;;;;;;9.58;95.34;99683.19;5022287;28;19924;-48
2022/12/19 12:45:45;;;;;;;;;;;;;;;9.42;96.85;99659.47;5021703;28;19924;-48
2022/12/19 12:48:15;;;;;;;;;;;;;;;9.32;98.85;99645.06;5022577;28;19980;-48
2022/12/19 12:50:40;;;;;;;;;;;;;;;9.36;99.05;99649.28;5021603;28;20012;-48
2022/12/19 12:53:06;;;;;;;;;;;;;;;9.36;100.00;99639.00;5022200;28;20015;-48
2022/12/19 12:55:32;;;;;;;;;;;;;;;9.67;100.00;99630.72;5038001;28;19956;-48
2022/12/19 12:57:57;;;;;;;;;;;;;;;9.52;100.00;99606.16;5020732;28;19959;-48